sensor_id;sensor_type;location;lat;lon;timestamp;P1;durP1;ratioP1;P2;durP2;ratioP2
39772;SDS011;25451;51.960;6.250;2022-10-16T00:01:12;4.30;;;1.60;;
39772;SDS011;25451;51.960;6.250;2022-10-16T00:03:39;5.07;;;1.60;;
39772;SDS011;25451;51.960;6.250;2022-10-16T00:06:05;4.28;;;1.40;;
39772;SDS011;25451;51.960;6.250;2022-10-16T00:08:32;5.43;;;1.58;;
39772;SDS011;25451;51.960;6.250;2022-10-16T00:11:01;3.13;;;1.50;;
39772;SDS011;25451;51.960;6.250;2022-10-16T00:13:30;4.40;;;1.80;;
39772;SDS011;25451;51.960;6.250;2022-10-16T00:15:57;6.63;;;1.73;;
39772;SDS011;25451;51.960;6.250;2022-10-16T00:18:23;3.45;;;2.20;;
39772;SDS011;25451;51.960;6.250;2022-10-16T00:20:49;5.05;;;2.20;;
39772;SDS011;25451;51.960;6.250;2022-10-16T00:23:14;5.13;;;2.20;;
39772;SDS011;25451;51.960;6.250;2022-10-16T00:25:40;4.60;;;2.00;;
39772;SDS011;25451;51.960;6.250;2022-10-16T00:28:05;3.87;;;1.77;;
39772;SDS011;25451;51.960;6.250;2022-10-16T00:30:30;4.30;;;1.90;;
39772;SDS011;25451;51.960;6.250;2022-10-16T00:32:56;4.83;;;2.00;;
39772;SDS011;25451;51.960;6.250;2022-10-16T00:35:21;5.13;;;2.10;;
39772;SDS011;25451;51.960;6.250;2022-10-16T00:37:47;4.70;;;2.08;;
39772;SDS011;25451;51.960;6.250;2022-10-16T00:40:12;5.10;;;2.20;;
39772;SDS011;25451;51.960;6.250;2022-10-16T00:42:37;5.93;;;2.20;;
39772;SDS011;25451;51.960;6.250;2022-10-16T00:45:03;3.93;;;2.00;;
39772;SDS011;25451;51.960;6.250;2022-10-16T00:47:31;6.20;;;1.85;;
39772;SDS011;25451;51.960;6.250;2022-10-16T00:50:02;4.85;;;2.15;;
39772;SDS011;25451;51.960;6.250;2022-10-16T00:52:43;5.20;;;2.20;;
39772;SDS011;25451;51.960;6.250;2022-10-16T00:55:11;3.95;;;2.17;;
39772;SDS011;25451;51.960;6.250;2022-10-16T00:57:37;4.63;;;2.10;;
39772;SDS011;25451;51.960;6.250;2022-10-16T01:00:05;6.70;;;2.10;;
39772;SDS011;25451;51.960;6.250;2022-10-16T01:02:32;4.80;;;1.98;;
39772;SDS011;25451;51.960;6.250;2022-10-16T01:04:57;6.30;;;2.60;;
39772;SDS011;25451;51.960;6.250;2022-10-16T01:15:31;8.18;;;2.50;;
39772;SDS011;25451;51.960;6.250;2022-10-16T01:18:13;6.97;;;2.05;;
39772;SDS011;25451;51.960;6.250;2022-10-16T01:20:54;5.87;;;1.87;;
39772;SDS011;25451;51.960;6.250;2022-10-16T01:28:28;5.38;;;2.30;;
39772;SDS011;25451;51.960;6.250;2022-10-16T01:30:59;4.95;;;2.28;;
39772;SDS011;25451;51.960;6.250;2022-10-16T01:36:26;3.65;;;1.65;;
39772;SDS011;25451;51.960;6.250;2022-10-16T01:39:00;4.22;;;1.80;;
39772;SDS011;25451;51.960;6.250;2022-10-16T01:41:37;4.32;;;2.10;;
39772;SDS011;25451;51.960;6.250;2022-10-16T01:44:06;3.67;;;1.90;;
39772;SDS011;25451;51.960;6.250;2022-10-16T01:46:38;6.63;;;1.97;;
39772;SDS011;25451;51.960;6.250;2022-10-16T01:49:06;3.88;;;1.58;;
39772;SDS011;25451;51.960;6.250;2022-10-16T01:51:34;4.75;;;1.85;;
39772;SDS011;25451;51.960;6.250;2022-10-16T01:54:00;4.97;;;1.80;;
39772;SDS011;25451;51.960;6.250;2022-10-16T01:56:27;4.38;;;2.08;;
39772;SDS011;25451;51.960;6.250;2022-10-16T01:58:55;5.30;;;2.00;;
39772;SDS011;25451;51.960;6.250;2022-10-16T02:01:25;6.82;;;1.80;;
39772;SDS011;25451;51.960;6.250;2022-10-16T02:03:54;5.03;;;2.20;;
39772;SDS011;25451;51.960;6.250;2022-10-16T02:06:24;4.05;;;1.90;;
39772;SDS011;25451;51.960;6.250;2022-10-16T02:08:50;4.63;;;2.10;;
39772;SDS011;25451;51.960;6.250;2022-10-16T02:11:15;4.65;;;1.80;;
39772;SDS011;25451;51.960;6.250;2022-10-16T02:13:45;3.40;;;2.00;;
39772;SDS011;25451;51.960;6.250;2022-10-16T02:16:13;3.47;;;1.85;;
39772;SDS011;25451;51.960;6.250;2022-10-16T02:18:39;5.60;;;2.00;;
39772;SDS011;25451;51.960;6.250;2022-10-16T02:21:25;4.00;;;1.80;;
39772;SDS011;25451;51.960;6.250;2022-10-16T02:24:00;4.55;;;1.85;;
39772;SDS011;25451;51.960;6.250;2022-10-16T02:26:39;5.10;;;1.67;;
39772;SDS011;25451;51.960;6.250;2022-10-16T02:29:10;4.30;;;1.70;;
39772;SDS011;25451;51.960;6.250;2022-10-16T02:31:41;4.75;;;1.70;;
39772;SDS011;25451;51.960;6.250;2022-10-16T02:34:10;3.47;;;1.55;;
39772;SDS011;25451;51.960;6.250;2022-10-16T02:36:37;3.97;;;1.90;;
39772;SDS011;25451;51.960;6.250;2022-10-16T02:39:04;3.42;;;1.80;;
39772;SDS011;25451;51.960;6.250;2022-10-16T02:41:30;4.20;;;1.63;;
39772;SDS011;25451;51.960;6.250;2022-10-16T02:43:56;5.10;;;1.63;;
39772;SDS011;25451;51.960;6.250;2022-10-16T02:46:22;3.30;;;1.70;;
39772;SDS011;25451;51.960;6.250;2022-10-16T02:48:47;4.43;;;1.70;;
39772;SDS011;25451;51.960;6.250;2022-10-16T02:51:12;3.20;;;1.60;;
39772;SDS011;25451;51.960;6.250;2022-10-16T02:53:38;4.27;;;1.50;;
39772;SDS011;25451;51.960;6.250;2022-10-16T02:56:03;4.17;;;1.60;;
39772;SDS011;25451;51.960;6.250;2022-10-16T02:58:28;5.83;;;1.60;;
39772;SDS011;25451;51.960;6.250;2022-10-16T03:00:54;3.33;;;1.40;;
39772;SDS011;25451;51.960;6.250;2022-10-16T03:03:20;3.80;;;1.45;;
39772;SDS011;25451;51.960;6.250;2022-10-16T03:05:45;2.43;;;1.10;;
39772;SDS011;25451;51.960;6.250;2022-10-16T03:08:11;3.00;;;1.60;;
39772;SDS011;25451;51.960;6.250;2022-10-16T03:10:36;3.40;;;1.50;;
39772;SDS011;25451;51.960;6.250;2022-10-16T03:13:02;2.73;;;1.60;;
39772;SDS011;25451;51.960;6.250;2022-10-16T03:15:27;4.60;;;1.57;;
39772;SDS011;25451;51.960;6.250;2022-10-16T03:17:53;2.70;;;1.48;;
39772;SDS011;25451;51.960;6.250;2022-10-16T03:20:19;2.53;;;1.30;;
39772;SDS011;25451;51.960;6.250;2022-10-16T03:22:44;4.70;;;1.50;;
39772;SDS011;25451;51.960;6.250;2022-10-16T03:25:10;2.70;;;1.50;;
39772;SDS011;25451;51.960;6.250;2022-10-16T03:27:35;4.33;;;1.57;;
39772;SDS011;25451;51.960;6.250;2022-10-16T03:30:00;4.47;;;1.40;;
39772;SDS011;25451;51.960;6.250;2022-10-16T03:32:25;3.87;;;1.67;;
39772;SDS011;25451;51.960;6.250;2022-10-16T03:34:51;2.77;;;1.40;;
39772;SDS011;25451;51.960;6.250;2022-10-16T03:37:18;3.17;;;1.50;;
39772;SDS011;25451;51.960;6.250;2022-10-16T03:39:43;2.87;;;1.30;;
39772;SDS011;25451;51.960;6.250;2022-10-16T03:42:08;2.47;;;1.40;;
39772;SDS011;25451;51.960;6.250;2022-10-16T03:44:34;3.47;;;1.33;;
39772;SDS011;25451;51.960;6.250;2022-10-16T03:46:59;3.60;;;1.30;;
39772;SDS011;25451;51.960;6.250;2022-10-16T03:49:24;2.93;;;1.57;;
39772;SDS011;25451;51.960;6.250;2022-10-16T03:51:50;4.27;;;1.60;;
39772;SDS011;25451;51.960;6.250;2022-10-16T03:54:15;6.17;;;1.50;;
39772;SDS011;25451;51.960;6.250;2022-10-16T03:56:40;2.63;;;1.53;;
39772;SDS011;25451;51.960;6.250;2022-10-16T03:59:06;4.17;;;1.43;;
39772;SDS011;25451;51.960;6.250;2022-10-16T04:01:31;3.30;;;1.40;;
39772;SDS011;25451;51.960;6.250;2022-10-16T04:03:56;2.93;;;1.30;;
39772;SDS011;25451;51.960;6.250;2022-10-16T04:06:21;3.40;;;1.40;;
39772;SDS011;25451;51.960;6.250;2022-10-16T04:08:47;2.95;;;1.30;;
39772;SDS011;25451;51.960;6.250;2022-10-16T04:11:12;4.83;;;1.70;;
39772;SDS011;25451;51.960;6.250;2022-10-16T04:13:37;4.13;;;1.80;;
39772;SDS011;25451;51.960;6.250;2022-10-16T04:16:03;2.43;;;1.40;;
39772;SDS011;25451;51.960;6.250;2022-10-16T04:18:28;2.83;;;1.40;;
39772;SDS011;25451;51.960;6.250;2022-10-16T04:20:54;3.67;;;1.40;;
39772;SDS011;25451;51.960;6.250;2022-10-16T04:23:19;3.30;;;1.40;;
39772;SDS011;25451;51.960;6.250;2022-10-16T04:25:44;3.20;;;1.43;;
39772;SDS011;25451;51.960;6.250;2022-10-16T04:28:10;2.77;;;1.30;;
39772;SDS011;25451;51.960;6.250;2022-10-16T04:30:37;2.47;;;1.30;;
39772;SDS011;25451;51.960;6.250;2022-10-16T04:33:03;2.42;;;1.13;;
39772;SDS011;25451;51.960;6.250;2022-10-16T04:35:28;3.10;;;1.30;;
39772;SDS011;25451;51.960;6.250;2022-10-16T04:37:53;2.43;;;1.27;;
39772;SDS011;25451;51.960;6.250;2022-10-16T04:40:18;4.40;;;1.40;;
39772;SDS011;25451;51.960;6.250;2022-10-16T04:42:44;3.63;;;1.40;;
39772;SDS011;25451;51.960;6.250;2022-10-16T04:45:09;2.47;;;1.30;;
39772;SDS011;25451;51.960;6.250;2022-10-16T04:47:34;2.83;;;1.40;;
39772;SDS011;25451;51.960;6.250;2022-10-16T04:50:00;2.95;;;1.40;;
39772;SDS011;25451;51.960;6.250;2022-10-16T04:52:27;3.03;;;1.50;;
39772;SDS011;25451;51.960;6.250;2022-10-16T04:54:52;3.80;;;1.48;;
39772;SDS011;25451;51.960;6.250;2022-10-16T04:57:19;3.38;;;1.40;;
39772;SDS011;25451;51.960;6.250;2022-10-16T04:59:44;2.47;;;1.30;;
39772;SDS011;25451;51.960;6.250;2022-10-16T05:02:09;5.63;;;1.60;;
39772;SDS011;25451;51.960;6.250;2022-10-16T05:04:34;2.50;;;1.40;;
39772;SDS011;25451;51.960;6.250;2022-10-16T05:07:00;3.40;;;1.50;;
39772;SDS011;25451;51.960;6.250;2022-10-16T05:09:25;3.23;;;1.43;;
39772;SDS011;25451;51.960;6.250;2022-10-16T05:11:50;3.10;;;1.43;;
39772;SDS011;25451;51.960;6.250;2022-10-16T05:14:16;2.80;;;1.30;;
39772;SDS011;25451;51.960;6.250;2022-10-16T05:16:41;4.00;;;1.60;;
39772;SDS011;25451;51.960;6.250;2022-10-16T05:19:06;4.47;;;1.87;;
39772;SDS011;25451;51.960;6.250;2022-10-16T05:21:32;2.60;;;1.50;;
39772;SDS011;25451;51.960;6.250;2022-10-16T05:23:57;3.75;;;1.50;;
39772;SDS011;25451;51.960;6.250;2022-10-16T05:26:22;2.33;;;1.40;;
39772;SDS011;25451;51.960;6.250;2022-10-16T05:28:48;4.40;;;1.63;;
39772;SDS011;25451;51.960;6.250;2022-10-16T05:31:14;3.45;;;1.20;;
39772;SDS011;25451;51.960;6.250;2022-10-16T05:33:39;2.43;;;1.27;;
39772;SDS011;25451;51.960;6.250;2022-10-16T05:36:05;3.70;;;1.60;;
39772;SDS011;25451;51.960;6.250;2022-10-16T05:38:33;3.92;;;1.45;;
39772;SDS011;25451;51.960;6.250;2022-10-16T05:40:58;4.50;;;1.55;;
39772;SDS011;25451;51.960;6.250;2022-10-16T05:43:24;2.07;;;1.20;;
39772;SDS011;25451;51.960;6.250;2022-10-16T05:46:00;2.30;;;1.30;;
39772;SDS011;25451;51.960;6.250;2022-10-16T05:48:29;3.33;;;1.30;;
39772;SDS011;25451;51.960;6.250;2022-10-16T05:51:06;3.53;;;1.30;;
39772;SDS011;25451;51.960;6.250;2022-10-16T05:53:34;4.20;;;1.27;;
39772;SDS011;25451;51.960;6.250;2022-10-16T05:56:01;2.47;;;1.40;;
39772;SDS011;25451;51.960;6.250;2022-10-16T05:58:31;2.33;;;1.23;;
39772;SDS011;25451;51.960;6.250;2022-10-16T06:00:59;2.92;;;1.42;;
39772;SDS011;25451;51.960;6.250;2022-10-16T06:03:26;4.47;;;1.38;;
39772;SDS011;25451;51.960;6.250;2022-10-16T06:05:52;2.63;;;1.20;;
39772;SDS011;25451;51.960;6.250;2022-10-16T06:08:18;3.13;;;1.20;;
39772;SDS011;25451;51.960;6.250;2022-10-16T06:10:46;2.38;;;1.13;;
39772;SDS011;25451;51.960;6.250;2022-10-16T06:13:12;2.92;;;1.33;;
39772;SDS011;25451;51.960;6.250;2022-10-16T06:15:39;3.92;;;1.45;;
39772;SDS011;25451;51.960;6.250;2022-10-16T06:18:06;2.28;;;1.30;;
39772;SDS011;25451;51.960;6.250;2022-10-16T06:20:32;2.60;;;1.42;;
39772;SDS011;25451;51.960;6.250;2022-10-16T06:22:57;2.17;;;1.20;;
39772;SDS011;25451;51.960;6.250;2022-10-16T06:25:23;2.60;;;1.40;;
39772;SDS011;25451;51.960;6.250;2022-10-16T06:27:48;1.93;;;1.10;;
39772;SDS011;25451;51.960;6.250;2022-10-16T06:30:13;3.10;;;1.40;;
39772;SDS011;25451;51.960;6.250;2022-10-16T06:32:39;2.38;;;1.40;;
39772;SDS011;25451;51.960;6.250;2022-10-16T06:35:04;2.42;;;1.35;;
39772;SDS011;25451;51.960;6.250;2022-10-16T06:37:30;6.17;;;1.70;;
39772;SDS011;25451;51.960;6.250;2022-10-16T06:39:55;3.60;;;1.37;;
39772;SDS011;25451;51.960;6.250;2022-10-16T06:42:20;3.03;;;1.60;;
39772;SDS011;25451;51.960;6.250;2022-10-16T06:44:46;2.40;;;1.33;;
39772;SDS011;25451;51.960;6.250;2022-10-16T06:47:11;2.50;;;1.30;;
39772;SDS011;25451;51.960;6.250;2022-10-16T06:49:36;3.37;;;1.60;;
39772;SDS011;25451;51.960;6.250;2022-10-16T06:52:02;2.73;;;1.40;;
39772;SDS011;25451;51.960;6.250;2022-10-16T06:54:28;3.78;;;1.40;;
39772;SDS011;25451;51.960;6.250;2022-10-16T06:56:54;2.50;;;1.53;;
39772;SDS011;25451;51.960;6.250;2022-10-16T06:59:20;3.50;;;1.40;;
39772;SDS011;25451;51.960;6.250;2022-10-16T07:01:46;3.90;;;1.40;;
39772;SDS011;25451;51.960;6.250;2022-10-16T07:04:11;2.35;;;1.20;;
39772;SDS011;25451;51.960;6.250;2022-10-16T07:06:36;5.90;;;1.40;;
39772;SDS011;25451;51.960;6.250;2022-10-16T07:09:03;4.40;;;1.40;;
39772;SDS011;25451;51.960;6.250;2022-10-16T07:11:31;3.03;;;1.20;;
39772;SDS011;25451;51.960;6.250;2022-10-16T07:13:56;3.33;;;1.30;;
39772;SDS011;25451;51.960;6.250;2022-10-16T07:16:23;4.60;;;1.57;;
39772;SDS011;25451;51.960;6.250;2022-10-16T07:18:53;4.03;;;1.80;;
39772;SDS011;25451;51.960;6.250;2022-10-16T07:21:23;4.53;;;1.52;;
39772;SDS011;25451;51.960;6.250;2022-10-16T07:23:54;3.05;;;1.40;;
39772;SDS011;25451;51.960;6.250;2022-10-16T07:26:20;3.83;;;1.55;;
39772;SDS011;25451;51.960;6.250;2022-10-16T07:28:46;3.50;;;1.53;;
39772;SDS011;25451;51.960;6.250;2022-10-16T07:31:13;3.03;;;1.60;;
39772;SDS011;25451;51.960;6.250;2022-10-16T07:33:39;4.32;;;1.45;;
39772;SDS011;25451;51.960;6.250;2022-10-16T07:36:06;5.53;;;1.70;;
39772;SDS011;25451;51.960;6.250;2022-10-16T07:38:32;3.85;;;1.40;;
39772;SDS011;25451;51.960;6.250;2022-10-16T07:41:02;5.57;;;1.50;;
39772;SDS011;25451;51.960;6.250;2022-10-16T07:43:29;4.07;;;1.60;;
39772;SDS011;25451;51.960;6.250;2022-10-16T07:45:55;3.72;;;1.50;;
39772;SDS011;25451;51.960;6.250;2022-10-16T07:48:21;4.63;;;1.60;;
39772;SDS011;25451;51.960;6.250;2022-10-16T07:50:47;2.90;;;1.50;;
39772;SDS011;25451;51.960;6.250;2022-10-16T07:53:13;3.38;;;1.42;;
39772;SDS011;25451;51.960;6.250;2022-10-16T07:55:39;3.35;;;1.80;;
39772;SDS011;25451;51.960;6.250;2022-10-16T07:58:05;3.50;;;1.60;;
39772;SDS011;25451;51.960;6.250;2022-10-16T08:00:31;4.53;;;1.70;;
39772;SDS011;25451;51.960;6.250;2022-10-16T08:02:57;2.50;;;1.42;;
39772;SDS011;25451;51.960;6.250;2022-10-16T08:05:25;5.30;;;1.50;;
39772;SDS011;25451;51.960;6.250;2022-10-16T08:07:52;3.13;;;1.50;;
39772;SDS011;25451;51.960;6.250;2022-10-16T08:10:18;3.90;;;1.80;;
39772;SDS011;25451;51.960;6.250;2022-10-16T08:12:45;6.88;;;1.70;;
39772;SDS011;25451;51.960;6.250;2022-10-16T08:15:10;4.53;;;1.90;;
39772;SDS011;25451;51.960;6.250;2022-10-16T08:17:36;3.30;;;1.50;;
39772;SDS011;25451;51.960;6.250;2022-10-16T08:20:02;3.23;;;1.70;;
39772;SDS011;25451;51.960;6.250;2022-10-16T08:22:28;3.45;;;1.60;;
39772;SDS011;25451;51.960;6.250;2022-10-16T08:24:53;5.50;;;1.93;;
39772;SDS011;25451;51.960;6.250;2022-10-16T08:27:18;4.33;;;1.80;;
39772;SDS011;25451;51.960;6.250;2022-10-16T08:29:44;3.60;;;1.70;;
39772;SDS011;25451;51.960;6.250;2022-10-16T08:32:09;4.33;;;1.70;;
39772;SDS011;25451;51.960;6.250;2022-10-16T08:34:34;4.30;;;1.77;;
39772;SDS011;25451;51.960;6.250;2022-10-16T08:37:00;3.67;;;1.70;;
39772;SDS011;25451;51.960;6.250;2022-10-16T08:39:25;2.90;;;1.48;;
39772;SDS011;25451;51.960;6.250;2022-10-16T08:44:42;3.95;;;1.60;;
39772;SDS011;25451;51.960;6.250;2022-10-16T08:47:33;4.55;;;1.70;;
39772;SDS011;25451;51.960;6.250;2022-10-16T08:50:09;5.50;;;1.60;;
39772;SDS011;25451;51.960;6.250;2022-10-16T08:52:38;6.45;;;1.90;;
39772;SDS011;25451;51.960;6.250;2022-10-16T08:55:05;3.97;;;1.58;;
39772;SDS011;25451;51.960;6.250;2022-10-16T08:57:31;4.20;;;1.50;;
39772;SDS011;25451;51.960;6.250;2022-10-16T09:00:08;3.75;;;1.40;;
39772;SDS011;25451;51.960;6.250;2022-10-16T09:02:45;3.47;;;1.50;;
39772;SDS011;25451;51.960;6.250;2022-10-16T09:10:58;3.95;;;1.88;;
39772;SDS011;25451;51.960;6.250;2022-10-16T09:13:43;5.93;;;2.07;;
39772;SDS011;25451;51.960;6.250;2022-10-16T09:21:28;3.45;;;1.75;;
39772;SDS011;25451;51.960;6.250;2022-10-16T09:23:59;3.58;;;1.88;;
39772;SDS011;25451;51.960;6.250;2022-10-16T09:26:32;4.77;;;1.50;;
39772;SDS011;25451;51.960;6.250;2022-10-16T09:28:57;3.73;;;1.60;;
39772;SDS011;25451;51.960;6.250;2022-10-16T09:31:22;4.67;;;1.80;;
39772;SDS011;25451;51.960;6.250;2022-10-16T09:33:50;4.97;;;1.50;;
39772;SDS011;25451;51.960;6.250;2022-10-16T09:36:19;6.57;;;1.63;;
39772;SDS011;25451;51.960;6.250;2022-10-16T09:38:46;3.47;;;1.30;;
39772;SDS011;25451;51.960;6.250;2022-10-16T09:41:21;8.13;;;1.73;;
39772;SDS011;25451;51.960;6.250;2022-10-16T09:43:54;4.50;;;1.50;;
39772;SDS011;25451;51.960;6.250;2022-10-16T09:46:24;5.90;;;1.40;;
39772;SDS011;25451;51.960;6.250;2022-10-16T09:48:50;5.53;;;1.50;;
39772;SDS011;25451;51.960;6.250;2022-10-16T09:51:20;5.75;;;1.70;;
39772;SDS011;25451;51.960;6.250;2022-10-16T09:53:49;5.55;;;1.52;;
39772;SDS011;25451;51.960;6.250;2022-10-16T09:56:30;3.95;;;1.40;;
39772;SDS011;25451;51.960;6.250;2022-10-16T09:59:08;5.77;;;1.50;;
39772;SDS011;25451;51.960;6.250;2022-10-16T10:01:39;4.20;;;1.27;;
39772;SDS011;25451;51.960;6.250;2022-10-16T10:04:06;4.72;;;1.30;;
39772;SDS011;25451;51.960;6.250;2022-10-16T10:06:33;5.32;;;1.45;;
39772;SDS011;25451;51.960;6.250;2022-10-16T10:09:13;3.97;;;1.10;;
39772;SDS011;25451;51.960;6.250;2022-10-16T10:11:57;5.43;;;1.20;;
39772;SDS011;25451;51.960;6.250;2022-10-16T10:25:07;6.55;;;1.63;;
39772;SDS011;25451;51.960;6.250;2022-10-16T10:36:30;8.20;;;1.30;;
39772;SDS011;25451;51.960;6.250;2022-10-16T10:39:22;7.50;;;1.30;;
39772;SDS011;25451;51.960;6.250;2022-10-16T10:44:54;6.57;;;1.38;;
39772;SDS011;25451;51.960;6.250;2022-10-16T10:47:46;6.05;;;1.30;;
39772;SDS011;25451;51.960;6.250;2022-10-16T10:50:22;5.68;;;1.20;;
39772;SDS011;25451;51.960;6.250;2022-10-16T11:06:18;6.38;;;1.30;;
39772;SDS011;25451;51.960;6.250;2022-10-16T11:08:53;5.53;;;1.37;;
39772;SDS011;25451;51.960;6.250;2022-10-16T11:11:29;7.82;;;1.60;;
39772;SDS011;25451;51.960;6.250;2022-10-16T11:14:00;8.55;;;1.38;;
39772;SDS011;25451;51.960;6.250;2022-10-16T11:16:39;7.35;;;1.20;;
39772;SDS011;25451;51.960;6.250;2022-10-16T11:28:02;7.07;;;1.40;;
39772;SDS011;25451;51.960;6.250;2022-10-16T11:30:32;5.28;;;1.25;;
39772;SDS011;25451;51.960;6.250;2022-10-16T11:35:57;5.77;;;1.23;;
39772;SDS011;25451;51.960;6.250;2022-10-16T11:44:20;5.00;;;1.20;;
39772;SDS011;25451;51.960;6.250;2022-10-16T11:47:01;5.03;;;1.27;;
39772;SDS011;25451;51.960;6.250;2022-10-16T11:49:42;10.07;;;1.30;;
39772;SDS011;25451;51.960;6.250;2022-10-16T11:52:19;8.13;;;1.20;;
39772;SDS011;25451;51.960;6.250;2022-10-16T11:55:02;6.30;;;1.20;;
39772;SDS011;25451;51.960;6.250;2022-10-16T11:57:32;5.15;;;1.10;;
39772;SDS011;25451;51.960;6.250;2022-10-16T12:03:05;8.43;;;1.10;;
39772;SDS011;25451;51.960;6.250;2022-10-16T12:08:19;5.90;;;1.45;;
39772;SDS011;25451;51.960;6.250;2022-10-16T12:10:46;6.10;;;1.27;;
39772;SDS011;25451;51.960;6.250;2022-10-16T12:13:31;6.77;;;1.27;;
39772;SDS011;25451;51.960;6.250;2022-10-16T12:18:39;6.25;;;1.25;;
39772;SDS011;25451;51.960;6.250;2022-10-16T12:21:06;6.85;;;1.05;;
39772;SDS011;25451;51.960;6.250;2022-10-16T12:23:33;7.22;;;1.00;;
39772;SDS011;25451;51.960;6.250;2022-10-16T12:26:03;5.13;;;1.10;;
39772;SDS011;25451;51.960;6.250;2022-10-16T12:28:30;6.93;;;1.58;;
39772;SDS011;25451;51.960;6.250;2022-10-16T12:31:02;5.43;;;0.90;;
39772;SDS011;25451;51.960;6.250;2022-10-16T12:33:31;5.10;;;1.10;;
39772;SDS011;25451;51.960;6.250;2022-10-16T12:35:59;5.97;;;1.30;;
39772;SDS011;25451;51.960;6.250;2022-10-16T12:38:28;7.77;;;1.20;;
39772;SDS011;25451;51.960;6.250;2022-10-16T12:41:24;4.03;;;1.00;;
39772;SDS011;25451;51.960;6.250;2022-10-16T12:43:54;6.57;;;1.00;;
39772;SDS011;25451;51.960;6.250;2022-10-16T12:48:47;5.90;;;1.20;;
39772;SDS011;25451;51.960;6.250;2022-10-16T12:53:57;4.13;;;0.90;;
39772;SDS011;25451;51.960;6.250;2022-10-16T12:56:24;7.07;;;1.33;;
39772;SDS011;25451;51.960;6.250;2022-10-16T12:59:03;4.63;;;0.85;;
39772;SDS011;25451;51.960;6.250;2022-10-16T13:01:41;7.20;;;1.10;;
39772;SDS011;25451;51.960;6.250;2022-10-16T13:04:22;5.10;;;0.90;;
39772;SDS011;25451;51.960;6.250;2022-10-16T13:09:50;7.47;;;0.98;;
39772;SDS011;25451;51.960;6.250;2022-10-16T13:12:23;5.95;;;1.20;;
39772;SDS011;25451;51.960;6.250;2022-10-16T13:17:37;4.30;;;1.10;;
39772;SDS011;25451;51.960;6.250;2022-10-16T13:20:28;9.45;;;1.10;;
39772;SDS011;25451;51.960;6.250;2022-10-16T13:28:04;9.70;;;1.15;;
39772;SDS011;25451;51.960;6.250;2022-10-16T13:30:39;10.47;;;1.50;;
39772;SDS011;25451;51.960;6.250;2022-10-16T13:33:07;6.00;;;0.93;;
39772;SDS011;25451;51.960;6.250;2022-10-16T13:35:46;5.80;;;1.13;;
39772;SDS011;25451;51.960;6.250;2022-10-16T13:38:20;6.95;;;0.90;;
39772;SDS011;25451;51.960;6.250;2022-10-16T13:43:24;4.13;;;1.00;;
39772;SDS011;25451;51.960;6.250;2022-10-16T13:46:01;5.78;;;1.25;;
39772;SDS011;25451;51.960;6.250;2022-10-16T13:48:29;6.45;;;1.20;;
39772;SDS011;25451;51.960;6.250;2022-10-16T13:53:43;5.30;;;0.98;;
39772;SDS011;25451;51.960;6.250;2022-10-16T13:56:17;5.57;;;1.13;;
39772;SDS011;25451;51.960;6.250;2022-10-16T13:58:45;5.25;;;1.00;;
39772;SDS011;25451;51.960;6.250;2022-10-16T14:01:15;7.32;;;1.13;;
39772;SDS011;25451;51.960;6.250;2022-10-16T14:03:41;4.90;;;1.02;;
39772;SDS011;25451;51.960;6.250;2022-10-16T14:06:11;4.75;;;0.90;;
39772;SDS011;25451;51.960;6.250;2022-10-16T14:08:42;4.80;;;1.10;;
39772;SDS011;25451;51.960;6.250;2022-10-16T14:11:09;7.22;;;1.13;;
39772;SDS011;25451;51.960;6.250;2022-10-16T14:13:45;8.25;;;1.08;;
39772;SDS011;25451;51.960;6.250;2022-10-16T14:16:15;5.80;;;1.20;;
39772;SDS011;25451;51.960;6.250;2022-10-16T14:18:44;9.57;;;1.35;;
39772;SDS011;25451;51.960;6.250;2022-10-16T14:21:13;6.13;;;0.80;;
39772;SDS011;25451;51.960;6.250;2022-10-16T14:23:41;4.97;;;0.95;;
39772;SDS011;25451;51.960;6.250;2022-10-16T14:28:38;5.28;;;1.05;;
39772;SDS011;25451;51.960;6.250;2022-10-16T14:33:56;6.63;;;0.90;;
39772;SDS011;25451;51.960;6.250;2022-10-16T14:36:22;3.55;;;0.82;;
39772;SDS011;25451;51.960;6.250;2022-10-16T14:41:28;3.00;;;0.90;;
39772;SDS011;25451;51.960;6.250;2022-10-16T14:44:02;3.00;;;0.80;;
39772;SDS011;25451;51.960;6.250;2022-10-16T14:51:41;3.78;;;0.90;;
39772;SDS011;25451;51.960;6.250;2022-10-16T14:54:10;7.07;;;1.00;;
39772;SDS011;25451;51.960;6.250;2022-10-16T14:56:56;6.95;;;1.00;;
39772;SDS011;25451;51.960;6.250;2022-10-16T14:59:30;2.97;;;1.00;;
39772;SDS011;25451;51.960;6.250;2022-10-16T15:02:16;5.28;;;1.23;;
39772;SDS011;25451;51.960;6.250;2022-10-16T15:04:48;4.22;;;0.82;;
39772;SDS011;25451;51.960;6.250;2022-10-16T15:07:14;6.97;;;1.00;;
39772;SDS011;25451;51.960;6.250;2022-10-16T15:09:40;4.10;;;0.88;;
39772;SDS011;25451;51.960;6.250;2022-10-16T15:12:05;3.00;;;0.90;;
39772;SDS011;25451;51.960;6.250;2022-10-16T15:14:30;4.37;;;0.97;;
39772;SDS011;25451;51.960;6.250;2022-10-16T15:16:56;4.17;;;0.90;;
39772;SDS011;25451;51.960;6.250;2022-10-16T15:19:22;6.57;;;1.03;;
39772;SDS011;25451;51.960;6.250;2022-10-16T15:21:47;4.23;;;1.10;;
39772;SDS011;25451;51.960;6.250;2022-10-16T15:24:14;4.45;;;0.90;;
39772;SDS011;25451;51.960;6.250;2022-10-16T15:26:39;6.25;;;1.20;;
39772;SDS011;25451;51.960;6.250;2022-10-16T15:29:05;5.80;;;1.30;;
39772;SDS011;25451;51.960;6.250;2022-10-16T15:31:30;4.60;;;1.20;;
39772;SDS011;25451;51.960;6.250;2022-10-16T15:33:56;5.50;;;1.17;;
39772;SDS011;25451;51.960;6.250;2022-10-16T15:36:32;6.78;;;1.05;;
39772;SDS011;25451;51.960;6.250;2022-10-16T15:39:01;2.25;;;1.00;;
39772;SDS011;25451;51.960;6.250;2022-10-16T15:41:26;2.90;;;1.10;;
39772;SDS011;25451;51.960;6.250;2022-10-16T15:43:51;7.27;;;1.33;;
39772;SDS011;25451;51.960;6.250;2022-10-16T15:46:18;7.77;;;1.47;;
39772;SDS011;25451;51.960;6.250;2022-10-16T15:48:45;4.85;;;1.40;;
39772;SDS011;25451;51.960;6.250;2022-10-16T15:51:11;5.55;;;1.60;;
39772;SDS011;25451;51.960;6.250;2022-10-16T15:53:36;5.40;;;1.30;;
39772;SDS011;25451;51.960;6.250;2022-10-16T15:56:02;4.47;;;1.47;;
39772;SDS011;25451;51.960;6.250;2022-10-16T15:58:28;5.38;;;1.40;;
39772;SDS011;25451;51.960;6.250;2022-10-16T16:00:55;5.95;;;1.20;;
39772;SDS011;25451;51.960;6.250;2022-10-16T16:03:21;4.43;;;1.30;;
39772;SDS011;25451;51.960;6.250;2022-10-16T16:05:47;5.27;;;1.23;;
39772;SDS011;25451;51.960;6.250;2022-10-16T16:08:12;3.97;;;1.30;;
39772;SDS011;25451;51.960;6.250;2022-10-16T16:10:37;4.93;;;1.10;;
39772;SDS011;25451;51.960;6.250;2022-10-16T16:13:02;7.00;;;1.10;;
39772;SDS011;25451;51.960;6.250;2022-10-16T16:15:28;3.33;;;0.90;;
39772;SDS011;25451;51.960;6.250;2022-10-16T16:17:53;5.43;;;1.20;;
39772;SDS011;25451;51.960;6.250;2022-10-16T16:20:18;11.73;;;1.43;;
39772;SDS011;25451;51.960;6.250;2022-10-16T16:22:44;5.80;;;1.00;;
39772;SDS011;25451;51.960;6.250;2022-10-16T16:25:09;4.60;;;1.60;;
39772;SDS011;25451;51.960;6.250;2022-10-16T16:27:35;5.20;;;1.20;;
39772;SDS011;25451;51.960;6.250;2022-10-16T16:30:03;4.47;;;1.10;;
39772;SDS011;25451;51.960;6.250;2022-10-16T16:32:30;6.57;;;1.38;;
39772;SDS011;25451;51.960;6.250;2022-10-16T16:34:55;6.37;;;1.50;;
39772;SDS011;25451;51.960;6.250;2022-10-16T16:37:20;4.90;;;1.40;;
39772;SDS011;25451;51.960;6.250;2022-10-16T16:39:46;4.78;;;1.45;;
39772;SDS011;25451;51.960;6.250;2022-10-16T16:42:11;5.43;;;1.87;;
39772;SDS011;25451;51.960;6.250;2022-10-16T16:44:36;7.77;;;2.10;;
39772;SDS011;25451;51.960;6.250;2022-10-16T16:47:03;6.67;;;2.00;;
39772;SDS011;25451;51.960;6.250;2022-10-16T16:49:30;9.68;;;2.10;;
39772;SDS011;25451;51.960;6.250;2022-10-16T16:51:56;4.00;;;1.83;;
39772;SDS011;25451;51.960;6.250;2022-10-16T16:54:21;8.53;;;2.13;;
39772;SDS011;25451;51.960;6.250;2022-10-16T16:56:46;9.83;;;2.40;;
39772;SDS011;25451;51.960;6.250;2022-10-16T16:59:13;8.27;;;2.37;;
39772;SDS011;25451;51.960;6.250;2022-10-16T17:01:39;9.88;;;2.92;;